Aérodrome :
LOGIN :

S'inscrire | Disclaimer

   EN    FR    IT 

 










Légende :    VFR   VFR Marginal   IFR   IFR Intensif   IFR Très Intensif
Visi : 
Plafond : 
>= 8 km
>= 3000ft
5 à 8 km
1000 à 3000 ft
1500m à 5 km
500 à 1000 ft
800 à 1500m
200 à 500 ft
< 800m
< 200 ft
Symboles :   Orages  Brouillard  Fortes neiges  Fortes précipitations  Vent > 20 kt
SIGMETs :   Divers  Orages  Givrage  Turbulence  Onde Orograph.  Cendres Volcan.







- Altitude de l'aérodrome : 84 ft
- Voir les cartes d'approche


LFBC - Cazaux

DERNIER METAR :
  • 210430Z AUTO 28012KT 260V330 6000 DZ OVC006 13/13 Q1022

METARs EXPIRÉS :
  • 210400Z AUTO 28015KT 6000 DZ OVC006 13/13 Q1022
  • 210330Z AUTO 28013G24KT 240V320 4900 -RADZ BR OVC006 13/13 Q1022
  • 210300Z AUTO 28014KT 260V320 5000 DZ BR OVC006 13/13 Q1022
  • 210230Z AUTO 28016KT 240V310 6000 OVC006 13/13 Q1022
  • 210200Z AUTO 28016KT 7000 OVC007 13/13 Q1022

Prévision TAF périmée.
Pas de NOTAMs connus pour ce terrain.
1 SIGMET publié pour la FIR Bordeaux (LFBB) :
 
Onde orographique forte
LFBB SIGMET 1 VALID 210300/210700 LFPW
LFBB BORDEAUX FIR/UIR SEV MTW FCST WI N4245 E00230 - N4215 E00230 - N4245 E00000 - N4300 E00000 - N4245 E00230 SFC/FL350 STNR NC=



MET'MAP, la Météo Aéronautique d'un coup d'oeil ! - Copyright ORBIFLY Décembre 2007 - Disclaimer

ORBIFLY MET'MAP TEAM :

Programmation & Développement : Alexandra Zaïnal
Conception & Développement : Baudouin d'Aumeries
Co-Programmation & Développement : Marc-Olivier Méhu
Soutien technique & logistique : Manuel Goepfert

Contact : metmap@orbifly.com




SOURCES & CREDITS :

   NOAA